Time;durP1;ratioP1;P1;durP2;ratioP2;P2;SDS_P1;SDS_P2;PMS_P1;PMS_P2;Temp;Humidity;BMP_temperature;BMP_pressure;BME280_temperature;BME280_humidity;BME280_pressure;Samples;Min_cycle;Max_cycle;Signal;HPM_P1;HPM_P2
2022/04/23 00:00:51;;;;;;;18.10;16.47;;;12.80;73.60;;;;;;5073982;28;20548;-46
2022/04/23 00:03:17;;;;;;;17.53;15.93;;;12.80;74.10;;;;;;5071598;28;20463;-46
2022/04/23 00:05:44;;;;;;;17.70;16.20;;;12.70;74.40;;;;;;5075110;28;20322;-46
2022/04/23 00:08:10;;;;;;;17.40;15.90;;;12.70;74.80;;;;;;5074609;28;20872;-46
2022/04/23 00:10:36;;;;;;;16.27;14.97;;;12.70;75.00;;;;;;5078868;28;20421;-46
2022/04/23 00:13:03;;;;;;;20.37;18.47;;;12.70;75.30;;;;;;5079880;28;20845;-47
2022/04/23 00:15:36;;;;;;;17.90;16.30;;;12.60;75.60;;;;;;5081094;28;20194;-46
2022/04/23 00:18:11;;;;;;;17.83;16.03;;;12.60;75.80;;;;;;5078952;28;20432;-46
2022/04/23 00:20:38;;;;;;;17.03;15.50;;;12.60;76.10;;;;;;5060854;28;20761;-46
2022/04/23 00:23:05;;;;;;;18.90;17.27;;;12.50;76.50;;;;;;5078244;28;20435;-46
2022/04/23 00:25:32;;;;;;;18.33;16.63;;;12.50;76.80;;;;;;5075549;28;20477;-46
2022/04/23 00:27:58;;;;;;;17.87;16.20;;;12.50;77.20;;;;;;5078882;28;20415;-46
2022/04/23 00:30:24;;;;;;;19.70;17.27;;;12.40;77.50;;;;;;5079300;28;20424;-46
2022/04/23 00:32:49;;;;;;;17.10;15.67;;;12.40;77.90;;;;;;5076136;28;20547;-46
2022/04/23 00:35:16;;;;;;;19.37;17.57;;;12.40;78.30;;;;;;5079271;28;20554;-46
2022/04/23 00:37:43;;;;;;;17.80;16.20;;;12.30;78.60;;;;;;5075691;28;20211;-47
2022/04/23 00:40:16;;;;;;;19.13;17.43;;;12.30;79.00;;;;;;5079132;28;20463;-46
2022/04/23 00:42:51;;;;;;;18.33;16.73;;;12.30;79.60;;;;;;5075150;28;20440;-46
2022/04/23 00:45:17;;;;;;;17.50;15.80;;;12.30;80.10;;;;;;5078301;28;20717;-46
2022/04/23 00:47:42;;;;;;;18.17;16.47;;;12.20;80.30;;;;;;5075242;28;20432;-46
2022/04/23 00:50:09;;;;;;;19.77;17.90;;;12.20;80.70;;;;;;5080104;28;20183;-46
2022/04/23 00:52:35;;;;;;;18.03;16.43;;;12.20;81.20;;;;;;5078095;28;20193;-46
2022/04/23 00:55:02;;;;;;;19.73;17.63;;;12.10;81.40;;;;;;5080760;28;20419;-46
2022/04/23 00:57:27;;;;;;;17.87;16.17;;;12.10;81.80;;;;;;5079459;28;20182;-46
2022/04/23 00:59:54;;;;;;;18.43;16.50;;;12.10;82.20;;;;;;5078114;28;20761;-46
2022/04/23 01:02:19;;;;;;;18.03;16.40;;;12.10;82.30;;;;;;5075428;28;20482;-46
2022/04/23 01:04:46;;;;;;;16.63;15.13;;;12.00;82.80;;;;;;5078385;28;20481;-44
2022/04/23 01:07:13;;;;;;;19.53;17.80;;;12.00;83.30;;;;;;5079158;28;20290;-46
2022/04/23 01:09:39;;;;;;;16.90;15.40;;;11.90;83.60;;;;;;5060694;28;20456;-46
2022/04/23 01:12:05;;;;;;;17.13;15.53;;;12.00;84.00;;;;;;5078119;28;20416;-46
2022/04/23 01:17:53;;;;;;;17.80;16.20;;;11.90;84.60;;;;;;5075925;28;20427;-47
2022/04/23 01:20:19;;;;;;;17.07;15.47;;;11.80;84.80;;;;;;5078257;28;20826;-46
2022/04/23 01:22:45;;;;;;;18.07;16.43;;;11.80;85.10;;;;;;5078818;28;20250;-46
2022/04/23 01:25:14;;;;;;;16.83;15.33;;;11.80;85.50;;;;;;5076746;28;20428;-46
2022/04/23 01:27:40;;;;;;;17.77;16.17;;;11.80;85.80;;;;;;5079482;28;20416;-46
2022/04/23 01:30:08;;;;;;;17.43;15.53;;;11.70;85.90;;;;;;5076090;28;20432;-46
2022/04/23 01:32:34;;;;;;;16.53;14.93;;;11.70;86.20;;;;;;5077598;28;20424;-46
2022/04/23 01:34:59;;;;;;;15.73;14.23;;;11.70;86.40;;;;;;5058237;28;20438;-46
2022/04/23 01:37:25;;;;;;;17.90;16.20;;;11.70;86.70;;;;;;5077382;28;20416;-46
2022/04/23 01:39:51;;;;;;;16.47;14.90;;;11.60;86.90;;;;;;5077190;28;20189;-46
2022/04/23 01:42:18;;;;;;;15.53;14.23;;;11.60;87.10;;;;;;5078192;28;20212;-46
2022/04/23 01:44:45;;;;;;;15.93;14.43;;;11.50;87.30;;;;;;5077893;28;20204;-46
2022/04/23 01:47:11;;;;;;;16.70;15.00;;;11.50;87.50;;;;;;5079186;28;20424;-46
2022/04/23 01:49:38;;;;;;;15.87;14.37;;;11.50;87.80;;;;;;5075111;28;20526;-46
2022/04/23 01:52:04;;;;;;;15.53;14.20;;;11.50;87.90;;;;;;5078216;28;20416;-49
2022/04/23 01:54:29;;;;;;;15.13;13.83;;;11.50;88.20;;;;;;5077985;28;20487;-46
2022/04/23 01:56:58;;;;;;;16.37;14.87;;;11.40;88.40;;;;;;5079103;28;20420;-46
2022/04/23 01:59:24;;;;;;;15.37;13.97;;;11.40;88.70;;;;;;5077749;28;20259;-46
2022/04/23 02:01:50;;;;;;;14.70;13.40;;;11.40;88.80;;;;;;5078825;28;20822;-46
2022/04/23 02:04:16;;;;;;;15.70;14.30;;;11.30;88.80;;;;;;5059755;28;20605;-46
2022/04/23 02:06:42;;;;;;;17.00;15.43;;;11.30;89.00;;;;;;5078721;28;20682;-46
2022/04/23 02:09:08;;;;;;;16.10;14.60;;;11.30;89.30;;;;;;5076554;28;20442;-47
2022/04/23 02:11:34;;;;;;;16.27;14.77;;;11.30;89.40;;;;;;5077935;28;20412;-46
2022/04/23 02:14:02;;;;;;;16.17;14.73;;;11.20;89.70;;;;;;5075330;28;20251;-46
2022/04/23 02:16:31;;;;;;;16.90;15.37;;;11.20;89.90;;;;;;5077994;28;20464;-46
2022/04/23 02:18:58;;;;;;;19.50;14.50;;;11.20;90.10;;;;;;5078351;28;20431;-47
2022/04/23 02:21:27;;;;;;;16.40;14.90;;;11.20;90.20;;;;;;5078975;28;20431;-46
2022/04/23 02:23:54;;;;;;;17.23;15.63;;;11.10;90.30;;;;;;5078883;28;20452;-46
2022/04/23 02:26:20;;;;;;;16.30;14.70;;;11.10;90.40;;;;;;5060846;28;20515;-46
2022/04/23 02:28:49;;;;;;;16.37;14.83;;;11.10;90.60;;;;;;5076623;28;20432;-46
2022/04/23 02:31:15;;;;;;;17.50;15.70;;;11.10;90.70;;;;;;5079017;28;20442;-47
2022/04/23 02:33:41;;;;;;;17.73;16.03;;;11.00;90.80;;;;;;5077961;28;20501;-46
2022/04/23 02:36:08;;;;;;;19.07;17.40;;;11.00;90.90;;;;;;5078695;28;20252;-46
2022/04/23 02:38:34;;;;;;;18.20;16.50;;;10.90;91.10;;;;;;5078434;28;20685;-46
2022/04/23 02:41:00;;;;;;;19.73;17.80;;;10.90;91.30;;;;;;5076846;28;20493;-46
2022/04/23 02:43:26;;;;;;;19.83;17.90;;;10.90;91.40;;;;;;5077593;28;20671;-46
2022/04/23 02:45:52;;;;;;;18.90;17.17;;;10.80;91.40;;;;;;5075455;28;20497;-46
2022/04/23 02:48:18;;;;;;;17.90;16.13;;;10.80;91.50;;;;;;5077258;28;20181;-46
2022/04/23 02:50:44;;;;;;;19.07;17.37;;;10.80;91.50;;;;;;5077115;28;20442;-46
2022/04/23 02:53:09;;;;;;;19.03;17.23;;;10.70;91.50;;;;;;5077032;28;20791;-46
2022/04/23 02:55:36;;;;;;;18.00;16.50;;;10.70;91.70;;;;;;5077058;28;20184;-46
2022/04/23 02:58:07;;;;;;;18.40;16.80;;;10.70;91.80;;;;;;5076173;28;20189;-46
2022/04/23 03:00:34;;;;;;;17.77;16.20;;;10.70;91.80;;;;;;5076677;28;20535;-46
2022/04/23 03:02:59;;;;;;;18.57;16.87;;;10.70;91.80;;;;;;5077652;28;20459;-46
2022/04/23 03:05:26;;;;;;;17.90;16.23;;;10.70;91.90;;;;;;5074864;28;20467;-46
2022/04/23 03:07:53;;;;;;;19.47;17.57;;;10.60;92.00;;;;;;5077777;28;20764;-46
2022/04/23 03:10:19;;;;;;;20.20;18.40;;;10.60;92.10;;;;;;5061717;28;20441;-46
2022/04/23 03:12:45;;;;;;;18.03;16.37;;;10.50;92.20;;;;;;5057980;28;20453;-46
2022/04/23 03:15:16;;;;;;;18.33;16.73;;;10.50;92.30;;;;;;5057478;28;20713;-46
2022/04/23 03:17:43;;;;;;;16.90;15.40;;;10.50;92.40;;;;;;5057144;28;20435;-46
2022/04/23 03:20:09;;;;;;;18.80;17.13;;;10.40;92.40;;;;;;5057121;28;20443;-46
2022/04/23 03:22:36;;;;;;;18.90;17.00;;;10.40;92.40;;;;;;5037658;28;20691;-46
2022/04/23 03:25:02;;;;;;;20.00;18.10;;;10.40;92.40;;;;;;5057099;28;20405;-46
2022/04/23 03:27:29;;;;;;;18.90;17.20;;;10.40;92.30;;;;;;5056710;28;20426;-46
2022/04/23 03:30:00;;;;;;;19.33;17.53;;;10.40;92.30;;;;;;5054995;28;20437;-46
2022/04/23 03:32:27;;;;;;;20.00;18.20;;;10.40;92.40;;;;;;5056146;28;20562;-45
2022/04/23 03:34:53;;;;;;;19.20;17.50;;;10.40;92.50;;;;;;5056920;28;20436;-46
2022/04/23 03:37:19;;;;;;;20.43;18.70;;;10.30;92.50;;;;;;5057194;28;20406;-46
2022/04/23 03:39:44;;;;;;;20.53;18.70;;;10.30;92.70;;;;;;5054941;28;20428;-46
2022/04/23 03:42:11;;;;;;;20.77;18.93;;;10.30;92.80;;;;;;5057234;28;20424;-46
2022/04/23 03:44:36;;;;;;;19.87;17.87;;;10.20;92.90;;;;;;5035836;28;20252;-46
2022/04/23 03:47:03;;;;;;;20.17;18.27;;;10.20;93.00;;;;;;5057093;28;20456;-46
2022/04/23 03:49:32;;;;;;;21.47;19.43;;;10.20;93.00;;;;;;5052933;28;20428;-46
2022/04/23 03:51:57;;;;;;;19.83;17.93;;;10.10;93.00;;;;;;5057828;28;20488;-46
2022/04/23 03:54:24;;;;;;;20.37;18.47;;;10.10;93.10;;;;;;5056872;28;20463;-46
2022/04/23 03:56:49;;;;;;;20.30;18.40;;;10.10;93.20;;;;;;5054395;28;20842;-46
2022/04/23 03:59:20;;;;;;;21.70;19.67;;;10.10;93.30;;;;;;5056431;28;20405;-46
2022/04/23 04:01:49;;;;;;;21.33;19.27;;;10.00;93.20;;;;;;5054669;28;20256;-46
2022/04/23 04:04:15;;;;;;;20.33;18.43;;;10.00;93.30;;;;;;5057530;28;20424;-46
2022/04/23 04:06:42;;;;;;;19.33;17.63;;;10.00;93.50;;;;;;5056550;28;20712;-46
2022/04/23 04:09:07;;;;;;;22.10;19.90;;;10.00;93.50;;;;;;5052957;28;20428;-46
2022/04/23 04:14:18;;;;;;;22.00;19.90;;;10.00;93.60;;;;;;5052261;28;20553;-47
2022/04/23 04:16:45;;;;;;;21.77;19.87;;;10.00;93.80;;;;;;5055135;28;20681;-47
2022/04/23 04:19:15;;;;;;;21.20;19.30;;;9.90;94.50;;;;;;5037267;28;20427;-47
2022/04/23 04:21:43;;;;;;;21.30;19.30;;;9.90;94.70;;;;;;5037597;28;20409;-47
2022/04/23 04:24:12;;;;;;;21.40;19.40;;;9.90;94.80;;;;;;5053827;28;20434;-45
2022/04/23 04:26:42;;;;;;;22.53;20.50;;;9.90;94.90;;;;;;5055767;28;20413;-46
2022/04/23 04:29:08;;;;;;;21.50;19.47;;;9.90;94.90;;;;;;5038151;28;20425;-46
2022/04/23 04:31:47;;;;;;;20.30;18.40;;;9.90;95.00;;;;;;5057193;28;20419;-46
2022/04/23 04:34:13;;;;;;;20.70;18.77;;;9.90;95.10;;;;;;5053292;28;20230;-46
2022/04/23 04:36:39;;;;;;;19.00;17.20;;;9.90;95.10;;;;;;5055430;28;20838;-46
2022/04/23 04:39:04;;;;;;;20.33;18.43;;;9.90;95.20;;;;;;5056575;28;20516;-46
2022/04/23 04:41:31;;;;;;;20.00;18.20;;;9.90;95.20;;;;;;5056885;28;20313;-46
2022/04/23 04:43:57;;;;;;;19.87;18.07;;;9.90;95.50;;;;;;5053852;28;20437;-46
2022/04/23 04:46:23;;;;;;;17.80;16.20;;;10.00;94.60;;;;;;5056341;28;20420;-46
2022/04/23 04:48:49;;;;;;;19.00;17.20;;;10.00;94.60;;;;;;5034506;28;20451;-47
2022/04/23 04:51:15;;;;;;;20.97;19.07;;;10.00;94.60;;;;;;5055202;28;20190;-47
2022/04/23 04:53:40;;;;;;;21.17;19.27;;;10.10;94.70;;;;;;5037295;28;20468;-47
2022/04/23 04:56:07;;;;;;;21.20;19.10;;;10.10;94.70;;;;;;5057330;28;20188;-47
2022/04/23 04:58:33;;;;;;;19.47;17.70;;;10.20;94.60;;;;;;5058414;28;20190;-47
2022/04/23 05:00:59;;;;;;;19.60;17.70;;;10.30;94.60;;;;;;5058982;28;20413;-47
2022/04/23 05:03:25;;;;;;;18.80;17.10;;;10.30;94.60;;;;;;5059947;28;20191;-47
2022/04/23 05:05:51;;;;;;;18.07;16.37;;;10.30;94.40;;;;;;5059831;28;20635;-47
2022/04/23 05:08:17;;;;;;;18.40;16.70;;;10.40;94.50;;;;;;5056999;28;20574;-47
2022/04/23 05:10:43;;;;;;;18.57;16.87;;;10.50;94.50;;;;;;5059235;28;20409;-47
2022/04/23 05:13:09;;;;;;;19.47;17.60;;;10.60;94.50;;;;;;5040688;28;20557;-47
2022/04/23 05:15:35;;;;;;;19.00;17.20;;;10.60;94.40;;;;;;5054789;28;20191;-47
2022/04/23 05:18:01;;;;;;;18.90;17.20;;;10.70;94.30;;;;;;5058459;28;20414;-47
2022/04/23 05:20:26;;;;;;;18.47;16.77;;;10.80;94.20;;;;;;5057477;28;20851;-46
2022/04/23 05:22:52;;;;;;;18.80;17.00;;;10.80;94.10;;;;;;5054829;28;20206;-46
2022/04/23 05:25:18;;;;;;;18.23;16.60;;;10.80;94.00;;;;;;5058231;28;20506;-47
2022/04/23 05:27:43;;;;;;;16.97;15.37;;;10.90;93.90;;;;;;5056516;28;20198;-47
2022/04/23 05:30:10;;;;;;;16.70;15.17;;;11.00;93.90;;;;;;5057751;28;20194;-47
2022/04/23 05:32:35;;;;;;;16.60;15.20;;;11.00;93.70;;;;;;5056664;28;20287;-47
2022/04/23 05:35:01;;;;;;;17.83;16.20;;;11.10;93.70;;;;;;5056127;28;20835;-47
2022/04/23 05:37:27;;;;;;;19.13;17.40;;;11.20;93.70;;;;;;5056546;28;20179;-47
2022/04/23 05:39:52;;;;;;;16.60;15.13;;;11.20;93.60;;;;;;5056275;28;20182;-47
2022/04/23 05:42:18;;;;;;;17.67;15.97;;;11.30;93.50;;;;;;5057160;28;20444;-47
2022/04/23 05:44:43;;;;;;;16.93;15.40;;;11.40;93.20;;;;;;5053131;28;20198;-47
2022/04/23 05:47:09;;;;;;;17.23;15.63;;;11.50;93.10;;;;;;5055330;28;20275;-47
2022/04/23 05:49:37;;;;;;;15.97;14.50;;;11.60;93.00;;;;;;5056033;28;20293;-47
2022/04/23 05:52:03;;;;;;;17.77;16.17;;;11.70;92.80;;;;;;5054103;28;20344;-47
2022/04/23 05:54:29;;;;;;;17.70;15.40;;;11.80;92.60;;;;;;5052872;28;20762;-47
2022/04/23 05:56:55;;;;;;;17.20;15.50;;;11.80;92.50;;;;;;5050565;28;20429;-47
2022/04/23 05:59:21;;;;;;;15.57;14.17;;;11.90;92.40;;;;;;5053995;28;20699;-46
2022/04/23 06:01:46;;;;;;;17.10;15.40;;;12.00;92.40;;;;;;5054545;28;20222;-47
2022/04/23 06:04:12;;;;;;;16.50;15.10;;;12.10;92.40;;;;;;5055423;28;20667;-46
2022/04/23 06:06:37;;;;;;;17.33;15.83;;;12.10;92.30;;;;;;5053567;28;20202;-47
2022/04/23 06:09:03;;;;;;;16.83;15.23;;;12.20;92.20;;;;;;5055954;28;20187;-47
2022/04/23 06:11:29;;;;;;;16.77;15.27;;;12.20;92.10;;;;;;5052876;28;20471;-47
2022/04/23 06:13:54;;;;;;;15.97;14.47;;;12.20;92.00;;;;;;5055075;28;20279;-47
2022/04/23 06:16:20;;;;;;;14.90;13.60;;;12.30;92.00;;;;;;5036071;28;20475;-47
2022/04/23 06:18:46;;;;;;;16.40;14.90;;;12.30;92.00;;;;;;5056838;28;20340;-47
2022/04/23 06:21:11;;;;;;;16.40;14.80;;;12.40;92.00;;;;;;5035404;28;20196;-46
2022/04/23 06:23:37;;;;;;;15.97;14.57;;;12.40;91.80;;;;;;5055142;28;20552;-46
2022/04/23 06:26:03;;;;;;;17.23;15.63;;;12.50;91.70;;;;;;5051696;28;20198;-46
2022/04/23 06:28:28;;;;;;;15.40;14.00;;;12.50;91.60;;;;;;5054062;28;20211;-46
2022/04/23 06:30:54;;;;;;;16.20;14.77;;;12.60;91.20;;;;;;5055267;28;20191;-46
2022/04/23 06:33:20;;;;;;;15.57;14.17;;;12.60;91.10;;;;;;5053226;28;20221;-46
2022/04/23 06:35:46;;;;;;;15.07;13.77;;;12.70;91.10;;;;;;5055417;28;20710;-47
2022/04/23 06:38:11;;;;;;;15.50;14.13;;;12.70;90.90;;;;;;5052662;28;20208;-46
2022/04/23 06:40:37;;;;;;;16.10;14.60;;;12.80;90.80;;;;;;5056190;28;20241;-46
2022/04/23 06:43:03;;;;;;;15.13;13.83;;;12.80;90.60;;;;;;5055774;28;20587;-46
2022/04/23 06:45:29;;;;;;;14.40;13.20;;;12.90;90.40;;;;;;5056017;28;20514;-46
2022/04/23 06:48:02;;;;;;;15.40;13.90;;;13.00;90.40;;;;;;5054272;28;20413;-46
2022/04/23 06:50:28;;;;;;;13.77;12.57;;;13.00;90.20;;;;;;5053587;28;20205;-47
2022/04/23 06:52:53;;;;;;;14.80;13.40;;;13.00;90.00;;;;;;5055917;28;20451;-47
2022/04/23 06:55:19;;;;;;;14.30;13.10;;;13.00;89.40;;;;;;5053677;28;20187;-47
2022/04/23 06:57:45;;;;;;;13.90;12.70;;;13.00;89.20;;;;;;5032759;28;20621;-47
2022/04/23 07:00:12;;;;;;;14.80;13.50;;;13.00;89.20;;;;;;5052951;28;20420;-47
2022/04/23 07:02:37;;;;;;;14.50;13.20;;;13.00;89.50;;;;;;5051739;28;20205;-47
2022/04/23 07:05:03;;;;;;;13.60;12.30;;;13.00;88.30;;;;;;5069911;28;20837;-45
2022/04/23 07:07:29;;;;;;;14.00;12.80;;;13.10;88.30;;;;;;5073251;28;20227;-47
2022/04/23 07:09:55;;;;;;;14.17;12.87;;;13.10;88.10;;;;;;5075521;28;20703;-45
2022/04/23 07:12:20;;;;;;;13.47;12.27;;;13.20;88.00;;;;;;5073383;28;20291;-44
2022/04/23 07:14:46;;;;;;;12.83;11.73;;;13.20;87.50;;;;;;5075735;28;20240;-47
2022/04/23 07:17:11;;;;;;;14.00;12.80;;;13.30;87.50;;;;;;5072907;28;20258;-47
2022/04/23 07:19:39;;;;;;;13.63;12.40;;;13.30;87.50;;;;;;5074854;28;20185;-46
2022/04/23 07:22:04;;;;;;;12.27;11.27;;;13.40;87.30;;;;;;5072349;28;20189;-45
2022/04/23 07:24:30;;;;;;;11.23;10.23;;;13.50;87.20;;;;;;5075435;28;20486;-46
2022/04/23 07:26:59;;;;;;;13.07;11.87;;;13.50;86.80;;;;;;5075348;28;20197;-46
2022/04/23 07:29:25;;;;;;;12.13;11.13;;;13.60;86.20;;;;;;5076837;28;20580;-46
2022/04/23 07:31:50;;;;;;;11.30;10.30;;;13.60;85.80;;;;;;5075058;28;20520;-46
2022/04/23 07:39:44;;;;;;;9.90;9.07;;;13.90;84.50;;;;;;5073978;28;20415;-44
2022/04/23 07:42:10;;;;;;;10.07;9.27;;;13.90;84.20;;;;;;5073777;28;20541;-46
2022/04/23 07:44:39;;;;;;;10.03;9.13;;;14.00;83.90;;;;;;5075482;28;20414;-45
2022/04/23 07:47:05;;;;;;;9.63;8.73;;;14.10;83.50;;;;;;5075931;28;20431;-45
2022/04/23 07:49:34;;;;;;;8.50;7.80;;;14.20;83.10;;;;;;5076588;28;20438;-48
2022/04/23 07:52:02;;;;;;;8.97;8.07;;;14.30;82.80;;;;;;5070203;28;20446;-45
2022/04/23 07:54:28;;;;;;;8.00;7.30;;;14.40;82.50;;;;;;5073836;28;20877;-48
2022/04/23 07:56:54;;;;;;;8.40;7.70;;;14.50;81.50;;;;;;5072314;28;20529;-44
2022/04/23 07:59:21;;;;;;;7.70;7.07;;;14.70;81.20;;;;;;5072832;28;20526;-50
2022/04/23 08:01:47;;;;;;;7.03;6.53;;;14.80;81.40;;;;;;5073520;28;20485;-45
2022/04/23 08:04:12;;;;;;;8.20;7.50;;;15.00;80.60;;;;;;5074954;28;20432;-47
2022/04/23 08:06:38;;;;;;;7.97;7.37;;;15.20;79.80;;;;;;5057858;28;20230;-51
2022/04/23 08:09:04;;;;;;;8.03;7.43;;;15.40;78.60;;;;;;5072783;28;20262;-46
2022/04/23 08:11:30;;;;;;;8.70;8.00;;;15.40;77.20;;;;;;5075384;28;20419;-48
2022/04/23 08:13:56;;;;;;;9.37;8.63;;;15.60;77.00;;;;;;5072048;28;20223;-45
2022/04/23 08:16:22;;;;;;;9.20;8.50;;;15.60;75.70;;;;;;5040423;28;20193;-50
2022/04/23 08:18:48;;;;;;;7.30;6.70;;;15.60;74.90;;;;;;5053357;28;20420;-47
2022/04/23 08:21:14;;;;;;;7.83;7.23;;;15.60;75.00;;;;;;5074856;28;20223;-46
2022/04/23 08:23:40;;;;;;;7.37;6.77;;;15.70;75.30;;;;;;5072339;28;20178;-44
2022/04/23 08:26:06;;;;;;;7.80;7.20;;;15.90;74.70;;;;;;5075310;28;20803;-45
2022/04/23 08:31:17;;;;;;;6.40;5.80;;;16.20;72.10;;;;;;5078314;28;20193;-47
2022/04/23 08:33:57;;;;;;;6.00;5.50;;;16.40;72.60;;;;;;5076265;28;20463;-49
2022/04/23 08:36:23;;;;;;;6.20;5.70;;;16.70;72.10;;;;;;5079513;28;20182;-47
2022/04/23 08:38:49;;;;;;;6.00;5.50;;;17.00;70.80;;;;;;5059194;28;20675;-46
2022/04/23 08:41:15;;;;;;;5.13;4.73;;;17.20;69.50;;;;;;5077689;28;20945;-48
2022/04/23 08:43:41;;;;;;;5.87;5.37;;;17.50;68.40;;;;;;5077282;28;20587;-48
2022/04/23 08:46:07;;;;;;;6.90;6.30;;;17.80;67.20;;;;;;5076921;28;20202;-50
2022/04/23 08:48:43;;;;;;;6.23;5.73;;;18.10;65.90;;;;;;5076611;28;20412;-50
2022/04/23 08:51:12;;;;;;;5.80;5.40;;;18.30;64.20;;;;;;5056584;28;20195;-51
2022/04/23 08:53:40;;;;;;;5.63;4.90;;;18.40;63.30;;;;;;5055056;28;20469;-48
2022/04/23 08:56:06;;;;;;;8.10;7.27;;;18.60;62.40;;;;;;5073692;28;20411;-48
2022/04/23 08:58:32;;;;;;;7.67;7.07;;;18.60;59.70;;;;;;5055252;28;20416;-47
2022/04/23 09:00:58;;;;;;;5.77;5.27;;;18.40;59.70;;;;;;5072179;28;20517;-50
2022/04/23 09:03:23;;;;;;;5.07;4.30;;;18.50;59.80;;;;;;5075489;28;20177;-45
2022/04/23 09:05:53;;;;;;;6.30;5.77;;;18.70;59.50;;;;;;5074774;28;20193;-46
2022/04/23 09:08:18;;;;;;;5.97;5.47;;;19.00;58.60;;;;;;5078908;28;20201;-48
2022/04/23 09:10:45;;;;;;;5.33;4.87;;;19.30;58.20;;;;;;5074660;28;20416;-46
2022/04/23 09:13:11;;;;;;;7.87;7.23;;;19.60;57.40;;;;;;5078700;28;20618;-49
2022/04/23 09:24:10;;;;;;;6.60;6.00;;;19.70;55.50;;;;;;5077216;28;20424;-46
2022/04/23 09:26:38;;;;;;;6.07;5.50;;;19.70;55.20;;;;;;5078555;28;20418;-48
2022/04/23 09:29:16;;;;;;;6.13;5.63;;;19.80;54.90;;;;;;5076463;28;20499;-48
2022/04/23 09:31:42;;;;;;;6.80;6.30;;;19.90;54.50;;;;;;5077160;28;20511;-51
2022/04/23 09:34:18;;;;;;;7.33;6.73;;;20.00;54.20;;;;;;5074209;28;20471;-47
2022/04/23 09:36:48;;;;;;;5.80;5.40;;;20.00;53.50;;;;;;5058947;28;20424;-47
2022/04/23 09:39:14;;;;;;;5.70;5.30;;;19.90;53.50;;;;;;5076343;28;20433;-47
2022/04/23 09:41:39;;;;;;;5.83;5.37;;;19.90;53.40;;;;;;5074311;28;20467;-50
2022/04/23 09:44:07;;;;;;;6.27;5.00;;;19.90;53.30;;;;;;5075464;28;20178;-50
2022/04/23 09:47:02;;;;;;;6.13;5.63;;;19.90;53.30;;;;;;5056609;28;20580;-48
2022/04/23 09:49:28;;;;;;;5.30;4.90;;;19.90;53.20;;;;;;5046826;28;20780;-48
2022/04/23 09:52:09;;;;;;;7.73;7.13;;;19.90;52.90;;;;;;5075957;28;20421;-47
2022/04/23 09:54:37;;;;;;;5.83;5.37;;;19.80;52.40;;;;;;5075980;28;20588;-49
2022/04/23 09:57:04;;;;;;;6.80;6.13;;;19.70;52.60;;;;;;5075190;28;20484;-47
2022/04/23 09:59:30;;;;;;;7.50;6.90;;;19.70;52.60;;;;;;5073636;28;20430;-48
2022/04/23 10:01:56;;;;;;;6.80;6.20;;;19.50;52.20;;;;;;5058544;28;20472;-47
2022/04/23 10:04:24;;;;;;;7.33;6.73;;;19.40;52.70;;;;;;5075957;28;20438;-46
2022/04/23 10:06:50;;;;;;;6.93;5.97;;;19.40;52.80;;;;;;5077638;28;20405;-49
2022/04/23 10:09:21;;;;;;;6.40;5.90;;;19.40;52.90;;;;;;5075359;28;20429;-46
2022/04/23 10:11:49;;;;;;;5.50;5.10;;;19.50;52.70;;;;;;5041855;28;20446;-47
2022/04/23 10:14:22;;;;;;;6.50;5.73;;;19.60;52.50;;;;;;5072648;28;20477;-48
2022/04/23 10:16:49;;;;;;;7.53;5.47;;;19.70;52.40;;;;;;5073717;28;20428;-48
2022/04/23 10:19:15;;;;;;;7.10;6.50;;;19.70;52.40;;;;;;5072953;28;20554;-49
2022/04/23 10:22:09;;;;;;;7.50;6.90;;;19.80;52.20;;;;;;5074056;28;20418;-48
2022/04/23 10:24:47;;;;;;;6.77;6.07;;;19.80;52.00;;;;;;5072855;28;20503;-48
2022/04/23 10:27:14;;;;;;;6.97;6.37;;;19.90;51.80;;;;;;5077073;28;20648;-46
2022/04/23 10:29:40;;;;;;;6.80;6.20;;;20.00;51.70;;;;;;5076064;28;20829;-43
2022/04/23 10:32:12;;;;;;;7.93;7.23;;;20.00;51.50;;;;;;5058836;28;20416;-46
2022/04/23 10:34:38;;;;;;;7.33;6.73;;;20.00;51.40;;;;;;5073586;28;20229;-47
2022/04/23 10:37:27;;;;;;;8.53;7.77;;;19.90;51.30;;;;;;5076064;28;20564;-46
2022/04/23 10:39:53;;;;;;;7.70;7.07;;;19.90;51.20;;;;;;5057017;28;20858;-46
2022/04/23 10:42:21;;;;;;;6.43;5.83;;;19.80;51.10;;;;;;5075048;28;20455;-44
2022/04/23 10:44:48;;;;;;;8.97;8.10;;;19.90;51.20;;;;;;5057035;28;20185;-45
2022/04/23 10:47:39;;;;;;;6.27;5.77;;;19.90;51.20;;;;;;5058009;28;20424;-46
2022/04/23 10:50:13;;;;;;;6.37;5.77;;;19.80;51.10;;;;;;5075763;28;20821;-46
2022/04/23 10:52:39;;;;;;;8.10;7.30;;;19.80;51.20;;;;;;5073080;28;20440;-48
2022/04/23 10:55:06;;;;;;;7.67;6.97;;;19.70;51.20;;;;;;5071534;28;20443;-46
2022/04/23 10:57:32;;;;;;;8.13;7.43;;;19.60;51.70;;;;;;5071942;28;20839;-49
2022/04/23 11:00:10;;;;;;;7.10;6.40;;;19.60;51.00;;;;;;5069551;28;20418;-46
2022/04/23 11:02:37;;;;;;;6.90;6.30;;;19.40;51.10;;;;;;5071745;28;20178;-46
2022/04/23 11:13:53;;;;;;;7.93;7.03;;;19.60;51.60;;;;;;5072750;28;20590;-46
2022/04/23 11:16:21;;;;;;;7.63;6.93;;;19.50;51.50;;;;;;5070741;28;20436;-47
2022/04/23 11:18:51;;;;;;;8.20;7.50;;;19.50;51.40;;;;;;5071705;28;20413;-43
2022/04/23 11:21:26;;;;;;;8.93;8.20;;;19.50;51.30;;;;;;5072177;28;20843;-46
2022/04/23 11:23:53;;;;;;;8.13;7.40;;;19.40;51.30;;;;;;5073602;28;20409;-45
2022/04/23 11:26:26;;;;;;;7.83;7.13;;;19.30;51.40;;;;;;5056748;28;20435;-45
2022/04/23 11:28:59;;;;;;;8.40;7.70;;;19.20;51.30;;;;;;5055006;28;20440;-45
2022/04/23 11:31:27;;;;;;;8.33;7.63;;;19.30;51.50;;;;;;5057799;28;20421;-47
2022/04/23 11:33:58;;;;;;;7.80;7.10;;;19.30;51.50;;;;;;5071857;28;20468;-47
2022/04/23 11:36:28;;;;;;;8.13;7.43;;;19.30;51.40;;;;;;5058874;28;20415;-45
2022/04/23 11:38:55;;;;;;;8.30;7.60;;;19.40;51.60;;;;;;5076613;28;20828;-46
2022/04/23 11:41:35;;;;;;;7.70;7.07;;;19.50;51.50;;;;;;5074589;28;20832;-47
2022/04/23 11:47:04;;;;;;;9.80;8.90;;;19.80;51.40;;;;;;5072088;28;20429;-45
2022/04/23 11:49:31;;;;;;;8.07;7.30;;;20.00;51.00;;;;;;5056539;28;20409;-44
2022/04/23 11:52:05;;;;;;;8.20;7.50;;;20.10;50.80;;;;;;5074226;28;20437;-45
2022/04/23 11:54:38;;;;;;;7.33;6.63;;;20.20;50.70;;;;;;5075297;28;20443;-45
2022/04/23 11:57:08;;;;;;;7.60;7.00;;;20.50;50.60;;;;;;5075568;28;20426;-43
2022/04/23 11:59:42;;;;;;;7.30;6.70;;;20.70;50.30;;;;;;5075934;28;20412;-46
2022/04/23 12:02:17;;;;;;;7.67;6.97;;;20.80;50.00;;;;;;5073605;28;20420;-45
2022/04/23 12:04:44;;;;;;;7.77;7.13;;;20.80;49.70;;;;;;5075780;28;20438;-49
2022/04/23 12:07:10;;;;;;;7.90;7.20;;;20.80;49.40;;;;;;5078631;28;20438;-44
2022/04/23 12:09:51;;;;;;;7.17;6.47;;;20.80;49.30;;;;;;5075164;28;20741;-44
2022/04/23 12:12:19;;;;;;;6.67;6.17;;;20.90;49.30;;;;;;5079755;28;20923;-48
2022/04/23 12:14:50;;;;;;;6.40;5.90;;;21.10;49.30;;;;;;5078477;28;20980;-46
2022/04/23 12:17:29;;;;;;;7.20;6.60;;;21.30;49.30;;;;;;5078099;28;20682;-44
2022/04/23 12:19:59;;;;;;;6.30;5.80;;;21.50;49.10;;;;;;5077846;28;20430;-46
2022/04/23 12:22:32;;;;;;;6.87;6.27;;;21.70;48.60;;;;;;5076103;28;21042;-43
2022/04/23 12:25:09;;;;;;;7.80;7.13;;;21.70;48.10;;;;;;5075224;28;20451;-43
2022/04/23 12:27:58;;;;;;;7.17;6.57;;;21.70;48.00;;;;;;5073616;28;20442;-47
2022/04/23 12:42:01;;;;;;;7.20;6.60;;;20.90;48.20;;;;;;5077700;28;20471;-43
2022/04/23 12:44:46;;;;;;;7.50;6.73;;;20.80;48.40;;;;;;5078952;28;20449;-44
2022/04/23 12:47:13;;;;;;;6.70;6.20;;;20.80;48.60;;;;;;5076156;28;20481;-44
2022/04/23 12:49:52;;;;;;;7.13;6.53;;;20.70;48.70;;;;;;5079570;28;20812;-45
2022/04/23 12:52:27;;;;;;;6.50;5.90;;;20.70;48.70;;;;;;5077489;28;20845;-47
2022/04/23 12:55:14;;;;;;;7.03;6.37;;;20.70;48.80;;;;;;5076551;28;20509;-47
2022/04/23 12:57:49;;;;;;;6.90;6.37;;;20.70;48.90;;;;;;5076465;28;20424;-44
2022/04/23 13:00:24;;;;;;;7.47;6.87;;;20.70;48.90;;;;;;5076110;28;20408;-46
2022/04/23 13:02:55;;;;;;;7.47;6.83;;;20.60;48.90;;;;;;5075100;28;20427;-48
2022/04/23 13:05:21;;;;;;;7.80;7.20;;;20.60;49.00;;;;;;5077325;28;20416;-44
2022/04/23 13:10:32;;;;;;;7.00;6.30;;;20.50;48.80;;;;;;5076912;28;20843;-43
2022/04/23 13:12:58;;;;;;;7.00;6.30;;;20.60;49.00;;;;;;5076538;28;20425;-48
2022/04/23 13:15:24;;;;;;;9.30;8.57;;;20.70;49.50;;;;;;5059476;28;20189;-46
2022/04/23 13:17:50;;;;;;;7.43;6.83;;;20.60;49.80;;;;;;5075975;28;20489;-45
2022/04/23 13:20:18;;;;;;;7.27;6.67;;;20.50;49.90;;;;;;5076485;28;20414;-47
2022/04/23 13:22:44;;;;;;;7.67;7.07;;;20.40;50.20;;;;;;5074263;28;20185;-48
2022/04/23 13:25:14;;;;;;;7.57;6.93;;;20.30;50.50;;;;;;5075666;28;20749;-46
2022/04/23 13:27:41;;;;;;;6.80;6.30;;;20.40;50.90;;;;;;5072886;28;20229;-47